createdAt,value
2022-10-31T00:10:24.089Z,51.85
2022-10-31T00:39:25.604Z,51.48
2022-10-31T00:44:36.987Z,51.58
2022-10-31T00:47:04.182Z,51.40
2022-10-31T00:49:31.159Z,51.36
2022-10-31T01:03:00.101Z,50.66
2022-10-31T01:05:27.579Z,50.91
2022-10-31T01:10:39.192Z,50.56
2022-10-31T01:13:06.309Z,50.56
2022-10-31T01:18:17.475Z,50.49
2022-10-31T01:26:22.962Z,50.36
2022-10-31T01:31:40.350Z,51.09
2022-10-31T01:34:07.884Z,51.04
2022-10-31T01:39:23.983Z,51.01
2022-10-31T01:41:53.349Z,51.30
2022-10-31T01:47:21.022Z,53.14
2022-10-31T02:06:42.577Z,55.52
2022-10-31T02:09:13.785Z,56.07
2022-10-31T02:17:16.252Z,57.11
2022-10-31T02:20:06.239Z,57.63
2022-10-31T02:25:53.267Z,59.16
2022-10-31T02:29:02.301Z,59.65
2022-10-31T02:31:35.175Z,59.85
2022-10-31T02:34:19.634Z,60.80
2022-10-31T02:37:14.127Z,61.66
2022-10-31T02:43:33.673Z,61.69
2022-10-31T02:51:51.610Z,62.80
2022-10-31T02:54:27.257Z,63.10
2022-10-31T02:59:52.258Z,62.91
2022-10-31T03:02:37.999Z,63.41
2022-10-31T03:05:12.845Z,63.71
2022-10-31T03:10:36.764Z,63.53
2022-10-31T03:13:18.420Z,63.03
2022-10-31T03:21:37.260Z,62.96
2022-10-31T03:29:43.504Z,62.03
2022-10-31T03:35:07.241Z,61.80
2022-10-31T03:37:36.411Z,61.77
2022-10-31T03:51:29.476Z,62.22
2022-10-31T03:54:04.500Z,62.32
2022-10-31T03:56:37.920Z,61.74
2022-10-31T03:59:15.362Z,61.89
2022-10-31T04:15:59.970Z,62.11
2022-10-31T04:18:27.522Z,62.10
2022-10-31T04:21:06.632Z,62.41
2022-10-31T04:23:34.824Z,61.57
2022-10-31T04:26:11.627Z,62.45
2022-10-31T04:31:22.698Z,62.63
2022-10-31T04:33:50.435Z,61.95
2022-10-31T04:36:18.115Z,62.67
2022-10-31T04:47:09.827Z,62.53
2022-10-31T04:49:37.350Z,62.32
2022-10-31T04:52:04.615Z,62.12
2022-10-31T04:57:42.098Z,62.32
2022-10-31T05:02:58.345Z,60.84
2022-10-31T05:08:15.723Z,60.50
2022-10-31T05:10:42.799Z,60.09
2022-10-31T05:19:23.782Z,60.70
2022-10-31T05:22:08.877Z,60.72
2022-10-31T05:24:37.595Z,61.12
2022-10-31T05:29:49.955Z,60.46
2022-10-31T05:32:17.326Z,60.39
2022-10-31T05:38:07.396Z,60.55
2022-10-31T05:40:34.520Z,60.64
2022-10-31T05:49:01.669Z,60.63
2022-10-31T06:00:14.631Z,60.16
2022-10-31T06:05:50.804Z,60.69
2022-10-31T06:14:02.699Z,60.44
2022-10-31T06:16:49.857Z,60.98
2022-10-31T06:19:35.382Z,60.76
2022-10-31T06:22:02.451Z,60.66
2022-10-31T06:24:48.008Z,60.89
2022-10-31T06:30:16.177Z,61.22
2022-10-31T06:32:45.511Z,60.92
2022-10-31T06:35:13.003Z,61.11
2022-10-31T06:37:43.378Z,60.79
2022-10-31T06:40:34.325Z,60.52
2022-10-31T06:49:33.904Z,60.74
2022-10-31T06:54:48.081Z,59.93
2022-10-31T06:57:15.452Z,59.78
2022-10-31T07:05:27.611Z,59.32
2022-10-31T07:08:04.112Z,59.55
2022-10-31T07:10:37.267Z,59.58
2022-10-31T07:13:12.624Z,59.39
2022-10-31T07:15:41.430Z,59.47
2022-10-31T07:18:10.959Z,59.05
2022-10-31T07:20:38.900Z,58.97
2022-10-31T07:23:07.194Z,58.96
2022-10-31T07:25:34.373Z,59.04
2022-10-31T07:30:54.173Z,58.55
2022-10-31T07:41:59.889Z,58.40
2022-10-31T07:44:27.463Z,58.72
2022-10-31T07:50:31.393Z,57.85
2022-10-31T07:53:36.494Z,57.93
2022-10-31T07:56:22.729Z,58.02
2022-10-31T07:58:50.460Z,58.02
2022-10-31T08:01:17.401Z,58.58
2022-10-31T08:03:53.897Z,58.67
2022-10-31T08:06:49.653Z,59.21
2022-10-31T08:09:26.526Z,59.44
2022-10-31T08:11:54.924Z,58.85
2022-10-31T08:14:24.004Z,58.66
2022-10-31T08:16:53.926Z,58.03
2022-10-31T08:19:21.290Z,57.16
2022-10-31T08:21:53.755Z,57.20
2022-10-31T08:24:24.874Z,56.04
2022-10-31T08:26:53.522Z,55.89
2022-10-31T08:29:21.946Z,56.13
2022-10-31T08:31:48.943Z,56.03
2022-10-31T08:34:34.319Z,55.42
2022-10-31T08:37:21.006Z,55.77
2022-10-31T08:39:54.999Z,54.42
2022-10-31T08:42:22.581Z,53.50
2022-10-31T08:44:49.644Z,53.01
2022-10-31T08:47:20.474Z,54.03
2022-10-31T08:49:48.294Z,54.11
2022-10-31T08:55:03.433Z,53.53
2022-10-31T09:00:43.927Z,52.59
2022-10-31T09:06:11.409Z,52.95
2022-10-31T09:08:38.755Z,51.99
2022-10-31T09:11:07.693Z,51.87
2022-10-31T09:17:03.791Z,51.83
2022-10-31T09:19:48.454Z,50.89
2022-10-31T09:25:00.446Z,48.55
2022-10-31T09:30:12.339Z,47.36
2022-10-31T09:32:39.979Z,46.90
2022-10-31T09:35:07.441Z,46.77
2022-10-31T09:43:15.515Z,47.82
2022-10-31T09:46:01.638Z,48.30
2022-10-31T09:48:55.975Z,48.60
2022-10-31T09:51:43.714Z,48.57
2022-10-31T10:00:01.949Z,48.29
2022-10-31T10:02:40.807Z,47.27
2022-10-31T10:05:19.657Z,47.94
2022-10-31T10:08:05.422Z,49.22
2022-10-31T10:11:28.474Z,49.46
2022-10-31T10:14:42.747Z,49.30
2022-10-31T10:17:55.564Z,51.31
2022-10-31T10:20:37.485Z,51.41
2022-10-31T10:23:29.282Z,51.32
2022-10-31T10:29:22.533Z,49.47
2022-10-31T10:31:52.840Z,50.23
2022-10-31T10:34:36.127Z,50.51
2022-10-31T10:37:18.616Z,51.32
2022-10-31T10:39:50.852Z,50.74
2022-10-31T10:42:36.979Z,51.02
2022-10-31T10:45:37.556Z,51.15
2022-10-31T10:48:17.897Z,51.43
2022-10-31T10:50:55.189Z,50.52
2022-10-31T10:54:05.200Z,51.05
2022-10-31T10:56:46.420Z,51.74
2022-10-31T10:59:17.751Z,53.41
2022-10-31T11:01:51.899Z,53.56
2022-10-31T11:04:30.438Z,53.34
2022-10-31T11:06:59.221Z,53.03
2022-10-31T11:09:26.274Z,52.48
2022-10-31T11:11:53.437Z,52.97
2022-10-31T11:14:21.785Z,52.31
2022-10-31T11:23:22.470Z,53.79
2022-10-31T11:25:58.044Z,54.97
2022-10-31T11:31:14.357Z,55.27
2022-10-31T11:33:49.170Z,55.31
2022-10-31T11:36:31.757Z,53.52
2022-10-31T11:39:03.199Z,52.62
2022-10-31T11:41:33.781Z,52.53
2022-10-31T11:48:33.626Z,52.87
2022-10-31T11:51:00.918Z,53.28
2022-10-31T11:56:17.863Z,53.49
2022-10-31T11:58:55.555Z,54.46
2022-10-31T12:01:28.806Z,53.53
2022-10-31T12:06:53.955Z,54.71
2022-10-31T12:12:57.285Z,54.85
2022-10-31T12:21:50.060Z,55.20
2022-10-31T12:27:58.393Z,56.31
2022-10-31T12:30:33.057Z,56.23
2022-10-31T12:33:23.125Z,56.80
2022-10-31T12:45:38.523Z,58.91
2022-10-31T12:57:30.775Z,59.48
2022-10-31T13:00:30.422Z,58.64
2022-10-31T13:03:25.141Z,59.35
2022-10-31T13:08:54.753Z,58.79
2022-10-31T13:17:28.361Z,58.83
2022-10-31T13:20:09.086Z,58.29
2022-10-31T13:25:39.129Z,58.53
2022-10-31T13:31:15.870Z,58.32
2022-10-31T13:34:39.791Z,58.09
2022-10-31T13:37:25.234Z,57.95
2022-10-31T13:40:22.521Z,58.11
2022-10-31T13:43:14.925Z,58.44
2022-10-31T13:48:43.751Z,57.96
2022-10-31T13:51:30.225Z,57.45
2022-10-31T13:53:57.086Z,57.42
2022-10-31T14:02:27.739Z,58.90
2022-10-31T14:08:23.394Z,58.21
2022-10-31T14:10:56.470Z,58.07
2022-10-31T14:13:42.440Z,58.79
2022-10-31T14:16:23.826Z,58.79
2022-10-31T14:18:59.964Z,59.03
2022-10-31T14:21:30.902Z,58.96
2022-10-31T14:26:59.045Z,58.88
2022-10-31T14:29:31.590Z,59.78
2022-10-31T14:32:13.852Z,58.83
2022-10-31T14:34:43.734Z,58.92
2022-10-31T14:37:25.354Z,59.37
2022-10-31T14:39:58.653Z,59.23
2022-10-31T14:46:02.470Z,58.55
2022-10-31T14:54:38.813Z,58.30
2022-10-31T15:00:06.770Z,59.20
2022-10-31T15:02:55.276Z,58.70
2022-10-31T15:05:28.108Z,57.90
2022-10-31T15:07:57.322Z,57.58
2022-10-31T15:10:38.152Z,57.86
2022-10-31T15:13:12.142Z,57.70
2022-10-31T15:18:29.851Z,58.02
2022-10-31T15:20:57.958Z,57.63
2022-10-31T15:23:43.556Z,57.97
2022-10-31T15:26:20.564Z,57.66
2022-10-31T15:29:00.211Z,57.79
2022-10-31T15:34:23.006Z,57.75
2022-10-31T15:39:37.945Z,57.69
2022-10-31T15:42:05.249Z,57.26
2022-10-31T15:47:23.593Z,58.19
2022-10-31T15:49:57.312Z,56.76
2022-10-31T15:55:24.142Z,57.67
2022-10-31T16:00:39.600Z,58.30
2022-10-31T16:03:24.917Z,58.98
2022-10-31T16:05:57.714Z,57.28
2022-10-31T16:08:30.776Z,57.31
2022-10-31T16:14:28.327Z,57.33
2022-10-31T16:16:58.715Z,57.63
2022-10-31T16:19:31.339Z,57.32
2022-10-31T16:22:12.980Z,56.94
2022-10-31T16:25:01.444Z,56.95
2022-10-31T16:27:33.279Z,57.42
2022-10-31T16:30:25.015Z,56.69
2022-10-31T16:32:57.703Z,57.26
2022-10-31T16:35:40.852Z,56.38
2022-10-31T16:38:10.514Z,57.74
2022-10-31T16:40:39.492Z,56.67
2022-10-31T16:43:10.449Z,56.63
2022-10-31T16:48:24.278Z,56.75
2022-10-31T16:50:53.900Z,57.76
2022-10-31T16:53:20.994Z,57.06
2022-10-31T17:01:25.916Z,57.45
2022-10-31T17:03:53.141Z,57.88
2022-10-31T17:06:20.366Z,57.09
2022-10-31T17:08:47.410Z,56.83
2022-10-31T17:11:23.426Z,57.12
2022-10-31T17:13:50.501Z,57.57
2022-10-31T17:19:01.907Z,57.14
2022-10-31T17:21:29.180Z,56.13
2022-10-31T17:23:56.231Z,56.52
2022-10-31T17:26:23.362Z,56.29
2022-10-31T17:28:52.780Z,56.40
2022-10-31T17:31:31.093Z,57.12
2022-10-31T17:34:02.686Z,57.32
2022-10-31T17:39:16.729Z,56.33
2022-10-31T17:41:43.798Z,56.70
2022-10-31T17:44:12.383Z,56.69
2022-10-31T17:46:39.515Z,56.82
2022-10-31T17:49:08.617Z,56.58
2022-10-31T17:54:22.880Z,57.07
2022-10-31T17:56:49.967Z,56.66
2022-10-31T18:02:03.155Z,56.72
2022-10-31T18:07:19.294Z,56.86
2022-10-31T18:12:36.753Z,57.17
2022-10-31T18:15:04.677Z,57.71
2022-10-31T18:17:32.310Z,57.24
2022-10-31T18:19:59.357Z,57.12
2022-10-31T18:22:26.390Z,57.29
2022-10-31T18:24:53.257Z,57.08
2022-10-31T18:30:06.717Z,56.74
2022-10-31T18:32:34.124Z,56.52
2022-10-31T18:39:33.280Z,57.34
2022-10-31T18:42:00.233Z,56.85
2022-10-31T18:44:28.039Z,56.31
2022-10-31T18:46:55.080Z,57.17
2022-10-31T18:49:25.874Z,56.72
2022-10-31T18:51:53.029Z,56.47
2022-10-31T18:54:20.126Z,56.38
2022-10-31T18:56:47.192Z,56.25
2022-10-31T18:59:14.224Z,56.94
2022-10-31T19:01:41.359Z,57.50
2022-10-31T19:09:40.160Z,55.97
2022-10-31T19:12:07.292Z,57.98
2022-10-31T19:14:34.478Z,56.86
2022-10-31T19:17:02.441Z,56.34
2022-10-31T19:19:29.844Z,56.73
2022-10-31T19:21:56.947Z,57.00
2022-10-31T19:24:24.507Z,56.72
2022-10-31T19:26:51.576Z,57.05
2022-10-31T19:29:18.606Z,56.56
2022-10-31T19:31:45.645Z,56.79
2022-10-31T19:36:57.518Z,56.22
2022-10-31T19:39:24.475Z,56.82
2022-10-31T19:41:51.363Z,56.35
2022-10-31T19:47:02.433Z,57.03
2022-10-31T19:49:29.540Z,57.25
2022-10-31T19:51:56.498Z,56.81
2022-10-31T19:54:24.332Z,57.23
2022-10-31T19:56:51.385Z,56.77
2022-10-31T19:59:18.443Z,56.72
2022-10-31T20:01:45.480Z,56.77
2022-10-31T20:06:56.904Z,56.41
2022-10-31T20:09:23.912Z,55.84
2022-10-31T20:11:50.901Z,56.62
2022-10-31T20:14:18.166Z,57.26
2022-10-31T20:16:45.840Z,56.56
2022-10-31T20:19:12.830Z,55.93
2022-10-31T20:21:41.371Z,56.11
2022-10-31T20:24:10.214Z,55.59
2022-10-31T20:29:23.984Z,55.81
2022-10-31T20:32:03.885Z,55.72
2022-10-31T20:34:31.538Z,55.45
2022-10-31T20:36:58.573Z,55.11
2022-10-31T20:39:25.441Z,55.23
2022-10-31T20:41:52.448Z,55.26
2022-10-31T20:47:04.312Z,55.71
2022-10-31T20:49:31.400Z,55.38
2022-10-31T21:00:32.182Z,56.33
2022-10-31T21:02:59.424Z,56.20
2022-10-31T21:05:26.528Z,56.95
2022-10-31T21:07:53.515Z,57.35
2022-10-31T21:10:20.522Z,56.70
2022-10-31T21:15:34.538Z,56.00
2022-10-31T21:20:45.991Z,56.60
2022-10-31T21:23:13.691Z,56.16
2022-10-31T21:25:43.443Z,55.82
2022-10-31T21:28:11.428Z,55.67
2022-10-31T21:33:33.065Z,55.26
2022-10-31T21:36:00.151Z,54.74
2022-10-31T21:41:15.276Z,55.57
2022-10-31T21:46:32.141Z,55.82
2022-10-31T21:49:00.267Z,56.30
2022-10-31T21:54:30.325Z,55.18
2022-10-31T22:05:17.262Z,56.16
2022-10-31T22:10:28.882Z,56.48
2022-10-31T22:12:55.937Z,56.27
2022-10-31T22:18:08.323Z,56.11
2022-10-31T22:20:35.314Z,55.71
2022-10-31T22:23:02.541Z,55.74
2022-10-31T22:30:58.361Z,55.62
2022-10-31T22:36:13.095Z,55.05
2022-10-31T22:38:40.930Z,54.66
2022-10-31T22:41:09.956Z,55.00
2022-10-31T22:43:38.073Z,55.66
2022-10-31T22:46:07.859Z,55.39
2022-10-31T22:48:38.132Z,55.34
2022-10-31T22:51:11.786Z,54.66
2022-10-31T22:53:39.721Z,54.76
2022-10-31T22:56:08.585Z,54.46
2022-10-31T22:58:35.645Z,54.61
2022-10-31T23:01:15.201Z,54.14
2022-10-31T23:03:42.938Z,54.38
2022-10-31T23:14:26.807Z,54.77
2022-10-31T23:16:56.723Z,55.13
2022-10-31T23:22:12.462Z,54.88
2022-10-31T23:24:44.158Z,54.25
2022-10-31T23:27:24.927Z,55.25
2022-10-31T23:38:06.903Z,54.88
2022-10-31T23:46:02.802Z,54.65
2022-10-31T23:48:30.064Z,54.87
2022-10-31T23:50:56.916Z,54.71
2022-10-31T23:53:23.986Z,55.09
2022-10-31T23:55:55.230Z,55.23
2022-10-31T23:58:22.212Z,55.29
